sensor_id;sensor_type;location;lat;lon;timestamp;temperature;humidity
34640;DHT22;22600;48.186;11.526;2023-02-23T00:01:27;22.60;52.70
34640;DHT22;22600;48.186;11.526;2023-02-23T00:03:55;22.60;52.70
34640;DHT22;22600;48.186;11.526;2023-02-23T00:06:21;22.60;52.70
34640;DHT22;22600;48.186;11.526;2023-02-23T00:08:46;22.60;52.70
34640;DHT22;22600;48.186;11.526;2023-02-23T00:11:13;22.60;52.90
34640;DHT22;22600;48.186;11.526;2023-02-23T00:13:40;22.60;53.00
34640;DHT22;22600;48.186;11.526;2023-02-23T00:16:07;22.50;52.60
34640;DHT22;22600;48.186;11.526;2023-02-23T00:18:34;22.60;53.00
34640;DHT22;22600;48.186;11.526;2023-02-23T00:21:17;22.60;52.90
34640;DHT22;22600;48.186;11.526;2023-02-23T00:23:49;22.60;53.00
34640;DHT22;22600;48.186;11.526;2023-02-23T00:26:15;22.60;52.70
34640;DHT22;22600;48.186;11.526;2023-02-23T00:28:44;22.60;53.20
34640;DHT22;22600;48.186;11.526;2023-02-23T00:31:10;22.60;52.80
34640;DHT22;22600;48.186;11.526;2023-02-23T00:33:36;22.50;53.20
34640;DHT22;22600;48.186;11.526;2023-02-23T00:36:07;22.60;53.80
34640;DHT22;22600;48.186;11.526;2023-02-23T00:38:33;22.60;53.20
34640;DHT22;22600;48.186;11.526;2023-02-23T00:41:08;22.60;53.20
34640;DHT22;22600;48.186;11.526;2023-02-23T00:43:36;22.60;53.20
34640;DHT22;22600;48.186;11.526;2023-02-23T00:46:02;22.60;53.20
34640;DHT22;22600;48.186;11.526;2023-02-23T00:48:33;22.50;53.30
34640;DHT22;22600;48.186;11.526;2023-02-23T00:51:03;22.60;53.40
34640;DHT22;22600;48.186;11.526;2023-02-23T00:53:29;22.60;53.30
34640;DHT22;22600;48.186;11.526;2023-02-23T00:55:55;22.60;53.00
34640;DHT22;22600;48.186;11.526;2023-02-23T00:58:22;22.60;53.00
34640;DHT22;22600;48.186;11.526;2023-02-23T01:00:47;22.60;53.10
34640;DHT22;22600;48.186;11.526;2023-02-23T01:03:13;22.60;53.50
34640;DHT22;22600;48.186;11.526;2023-02-23T01:05:39;22.70;53.60
34640;DHT22;22600;48.186;11.526;2023-02-23T01:08:04;22.60;53.50
34640;DHT22;22600;48.186;11.526;2023-02-23T01:10:37;22.60;53.50
34640;DHT22;22600;48.186;11.526;2023-02-23T01:13:03;22.60;53.40
34640;DHT22;22600;48.186;11.526;2023-02-23T01:15:30;22.50;53.50
34640;DHT22;22600;48.186;11.526;2023-02-23T01:17:57;22.60;53.10
34640;DHT22;22600;48.186;11.526;2023-02-23T01:20:23;22.60;53.50
34640;DHT22;22600;48.186;11.526;2023-02-23T01:22:49;22.50;53.60
34640;DHT22;22600;48.186;11.526;2023-02-23T01:25:18;22.60;53.60
34640;DHT22;22600;48.186;11.526;2023-02-23T01:27:44;22.50;53.70
34640;DHT22;22600;48.186;11.526;2023-02-23T01:30:12;22.60;53.60
34640;DHT22;22600;48.186;11.526;2023-02-23T01:32:39;22.60;53.70
34640;DHT22;22600;48.186;11.526;2023-02-23T01:35:07;22.50;53.60
34640;DHT22;22600;48.186;11.526;2023-02-23T01:37:34;22.60;53.70
34640;DHT22;22600;48.186;11.526;2023-02-23T01:40:01;22.60;53.40
34640;DHT22;22600;48.186;11.526;2023-02-23T01:42:30;22.60;53.90
34640;DHT22;22600;48.186;11.526;2023-02-23T01:45:32;22.60;53.90
34640;DHT22;22600;48.186;11.526;2023-02-23T01:48:05;22.60;53.70
34640;DHT22;22600;48.186;11.526;2023-02-23T01:50:37;22.60;53.80
34640;DHT22;22600;48.186;11.526;2023-02-23T01:53:03;22.70;53.80
34640;DHT22;22600;48.186;11.526;2023-02-23T01:55:29;22.60;53.70
34640;DHT22;22600;48.186;11.526;2023-02-23T01:58:06;22.60;53.70
34640;DHT22;22600;48.186;11.526;2023-02-23T02:00:36;22.60;53.70
34640;DHT22;22600;48.186;11.526;2023-02-23T02:03:06;22.50;53.70
34640;DHT22;22600;48.186;11.526;2023-02-23T02:05:36;22.60;53.70
34640;DHT22;22600;48.186;11.526;2023-02-23T02:08:03;22.60;53.80
34640;DHT22;22600;48.186;11.526;2023-02-23T02:10:30;22.60;53.90
34640;DHT22;22600;48.186;11.526;2023-02-23T02:13:09;22.60;53.90
34640;DHT22;22600;48.186;11.526;2023-02-23T02:15:47;22.60;54.10
34640;DHT22;22600;48.186;11.526;2023-02-23T02:26:38;22.60;54.10
34640;DHT22;22600;48.186;11.526;2023-02-23T02:37:23;22.60;53.60
34640;DHT22;22600;48.186;11.526;2023-02-23T02:39:56;22.50;54.10
34640;DHT22;22600;48.186;11.526;2023-02-23T02:42:54;22.60;54.10
34640;DHT22;22600;48.186;11.526;2023-02-23T02:45:31;22.50;54.00
34640;DHT22;22600;48.186;11.526;2023-02-23T02:48:05;22.60;53.90
34640;DHT22;22600;48.186;11.526;2023-02-23T02:53:04;22.50;53.90
34640;DHT22;22600;48.186;11.526;2023-02-23T02:55:32;22.60;53.90
34640;DHT22;22600;48.186;11.526;2023-02-23T02:58:01;22.50;53.80
34640;DHT22;22600;48.186;11.526;2023-02-23T03:00:39;22.60;53.30
34640;DHT22;22600;48.186;11.526;2023-02-23T03:03:39;22.50;53.80
34640;DHT22;22600;48.186;11.526;2023-02-23T03:06:32;22.60;53.80
34640;DHT22;22600;48.186;11.526;2023-02-23T03:09:37;22.60;54.10
34640;DHT22;22600;48.186;11.526;2023-02-23T03:20:58;22.60;54.60
34640;DHT22;22600;48.186;11.526;2023-02-23T03:27:21;22.60;54.70
34640;DHT22;22600;48.186;11.526;2023-02-23T03:32:58;22.60;54.50
34640;DHT22;22600;48.186;11.526;2023-02-23T03:35:49;22.60;54.40
34640;DHT22;22600;48.186;11.526;2023-02-23T03:41:57;22.60;54.50
34640;DHT22;22600;48.186;11.526;2023-02-23T03:44:45;22.60;54.60
34640;DHT22;22600;48.186;11.526;2023-02-23T03:47:35;22.50;54.20
34640;DHT22;22600;48.186;11.526;2023-02-23T03:50:34;22.50;54.10
34640;DHT22;22600;48.186;11.526;2023-02-23T03:53:27;22.50;54.60
34640;DHT22;22600;48.186;11.526;2023-02-23T03:56:15;22.50;54.80
34640;DHT22;22600;48.186;11.526;2023-02-23T03:59:03;22.60;55.00
34640;DHT22;22600;48.186;11.526;2023-02-23T04:01:49;22.50;55.00
34640;DHT22;22600;48.186;11.526;2023-02-23T04:04:35;22.60;55.00
34640;DHT22;22600;48.186;11.526;2023-02-23T04:07:20;22.50;54.90
34640;DHT22;22600;48.186;11.526;2023-02-23T04:10:05;22.50;54.50
34640;DHT22;22600;48.186;11.526;2023-02-23T04:13:06;22.50;54.40
34640;DHT22;22600;48.186;11.526;2023-02-23T04:15:48;22.50;54.90
34640;DHT22;22600;48.186;11.526;2023-02-23T04:18:19;22.50;54.90
34640;DHT22;22600;48.186;11.526;2023-02-23T04:20:46;22.60;55.00
34640;DHT22;22600;48.186;11.526;2023-02-23T04:23:12;22.60;54.80
34640;DHT22;22600;48.186;11.526;2023-02-23T04:25:37;22.60;55.20
34640;DHT22;22600;48.186;11.526;2023-02-23T04:28:03;22.50;55.00
34640;DHT22;22600;48.186;11.526;2023-02-23T04:30:29;22.50;55.00
34640;DHT22;22600;48.186;11.526;2023-02-23T04:32:55;22.40;55.40
34640;DHT22;22600;48.186;11.526;2023-02-23T04:35:20;22.60;55.50
34640;DHT22;22600;48.186;11.526;2023-02-23T04:37:46;22.60;55.50
34640;DHT22;22600;48.186;11.526;2023-02-23T04:40:12;22.60;55.00
34640;DHT22;22600;48.186;11.526;2023-02-23T04:42:39;22.40;55.40
34640;DHT22;22600;48.186;11.526;2023-02-23T04:45:05;22.50;55.60
34640;DHT22;22600;48.186;11.526;2023-02-23T04:47:31;22.60;55.50
34640;DHT22;22600;48.186;11.526;2023-02-23T04:49:56;22.60;55.70
34640;DHT22;22600;48.186;11.526;2023-02-23T04:52:22;22.60;55.80
34640;DHT22;22600;48.186;11.526;2023-02-23T04:54:48;22.60;55.80
34640;DHT22;22600;48.186;11.526;2023-02-23T04:57:13;22.60;55.80
34640;DHT22;22600;48.186;11.526;2023-02-23T04:59:39;22.50;55.30
34640;DHT22;22600;48.186;11.526;2023-02-23T05:02:04;22.50;55.70
34640;DHT22;22600;48.186;11.526;2023-02-23T05:04:31;22.50;55.90
34640;DHT22;22600;48.186;11.526;2023-02-23T05:06:57;22.50;55.80
34640;DHT22;22600;48.186;11.526;2023-02-23T05:09:23;22.50;55.60
34640;DHT22;22600;48.186;11.526;2023-02-23T05:11:48;22.50;55.50
34640;DHT22;22600;48.186;11.526;2023-02-23T05:14:14;22.50;55.60
34640;DHT22;22600;48.186;11.526;2023-02-23T05:16:39;22.60;55.40
34640;DHT22;22600;48.186;11.526;2023-02-23T05:19:05;22.60;55.10
34640;DHT22;22600;48.186;11.526;2023-02-23T05:21:31;22.60;55.10
34640;DHT22;22600;48.186;11.526;2023-02-23T05:23:56;22.50;54.90
34640;DHT22;22600;48.186;11.526;2023-02-23T05:26:22;22.60;54.80
34640;DHT22;22600;48.186;11.526;2023-02-23T05:28:48;22.50;54.80
34640;DHT22;22600;48.186;11.526;2023-02-23T05:31:14;22.50;55.20
34640;DHT22;22600;48.186;11.526;2023-02-23T05:33:39;22.50;54.90
34640;DHT22;22600;48.186;11.526;2023-02-23T05:36:13;22.50;55.40
34640;DHT22;22600;48.186;11.526;2023-02-23T05:38:41;22.50;55.50
34640;DHT22;22600;48.186;11.526;2023-02-23T05:41:07;22.50;55.00
34640;DHT22;22600;48.186;11.526;2023-02-23T05:43:34;22.50;55.00
34640;DHT22;22600;48.186;11.526;2023-02-23T05:45:59;22.50;55.50
34640;DHT22;22600;48.186;11.526;2023-02-23T05:48:26;22.50;55.40
34640;DHT22;22600;48.186;11.526;2023-02-23T05:50:52;22.50;55.90
34640;DHT22;22600;48.186;11.526;2023-02-23T05:53:17;22.50;54.90
34640;DHT22;22600;48.186;11.526;2023-02-23T05:55:43;22.50;54.90
34640;DHT22;22600;48.186;11.526;2023-02-23T05:58:09;22.50;54.80
34640;DHT22;22600;48.186;11.526;2023-02-23T06:00:34;22.50;54.90
34640;DHT22;22600;48.186;11.526;2023-02-23T06:03:00;22.60;55.40
34640;DHT22;22600;48.186;11.526;2023-02-23T06:05:25;22.50;55.40
34640;DHT22;22600;48.186;11.526;2023-02-23T06:07:51;22.60;55.50
34640;DHT22;22600;48.186;11.526;2023-02-23T06:10:16;22.50;55.40
34640;DHT22;22600;48.186;11.526;2023-02-23T06:12:42;22.60;55.50
34640;DHT22;22600;48.186;11.526;2023-02-23T06:15:08;22.50;55.40
34640;DHT22;22600;48.186;11.526;2023-02-23T06:17:34;22.50;56.00
34640;DHT22;22600;48.186;11.526;2023-02-23T06:20:00;22.60;55.80
34640;DHT22;22600;48.186;11.526;2023-02-23T06:22:27;22.50;56.80
34640;DHT22;22600;48.186;11.526;2023-02-23T06:24:53;22.60;56.40
34640;DHT22;22600;48.186;11.526;2023-02-23T06:27:18;22.60;56.40
34640;DHT22;22600;48.186;11.526;2023-02-23T06:29:44;22.50;56.30
34640;DHT22;22600;48.186;11.526;2023-02-23T06:32:09;22.60;56.20
34640;DHT22;22600;48.186;11.526;2023-02-23T06:34:35;22.60;56.20
34640;DHT22;22600;48.186;11.526;2023-02-23T06:37:01;22.60;55.80
34640;DHT22;22600;48.186;11.526;2023-02-23T06:39:27;22.60;55.80
34640;DHT22;22600;48.186;11.526;2023-02-23T06:41:52;22.60;56.20
34640;DHT22;22600;48.186;11.526;2023-02-23T06:44:18;22.60;56.20
34640;DHT22;22600;48.186;11.526;2023-02-23T06:46:43;22.60;56.10
34640;DHT22;22600;48.186;11.526;2023-02-23T06:49:10;22.60;56.10
34640;DHT22;22600;48.186;11.526;2023-02-23T06:51:36;22.60;55.70
34640;DHT22;22600;48.186;11.526;2023-02-23T06:54:01;22.60;56.20
34640;DHT22;22600;48.186;11.526;2023-02-23T06:56:27;24.80;57.40
34640;DHT22;22600;48.186;11.526;2023-02-23T06:58:53;22.60;56.30
34640;DHT22;22600;48.186;11.526;2023-02-23T07:01:19;22.60;56.30
34640;DHT22;22600;48.186;11.526;2023-02-23T07:03:45;22.60;56.40
34640;DHT22;22600;48.186;11.526;2023-02-23T07:06:11;22.60;56.40
34640;DHT22;22600;48.186;11.526;2023-02-23T07:08:37;22.50;56.00
34640;DHT22;22600;48.186;11.526;2023-02-23T07:11:10;22.60;56.10
34640;DHT22;22600;48.186;11.526;2023-02-23T07:13:35;22.60;56.60
34640;DHT22;22600;48.186;11.526;2023-02-23T07:16:02;22.60;56.50
34640;DHT22;22600;48.186;11.526;2023-02-23T07:18:27;22.50;56.50
34640;DHT22;22600;48.186;11.526;2023-02-23T07:20:53;22.60;56.50
34640;DHT22;22600;48.186;11.526;2023-02-23T07:23:18;22.60;56.50
34640;DHT22;22600;48.186;11.526;2023-02-23T07:25:44;22.60;56.50
34640;DHT22;22600;48.186;11.526;2023-02-23T07:28:10;22.60;56.50
34640;DHT22;22600;48.186;11.526;2023-02-23T07:30:38;22.60;56.60
34640;DHT22;22600;48.186;11.526;2023-02-23T07:33:04;22.60;56.70
34640;DHT22;22600;48.186;11.526;2023-02-23T07:35:29;22.50;56.60
34640;DHT22;22600;48.186;11.526;2023-02-23T07:37:55;22.60;56.70
34640;DHT22;22600;48.186;11.526;2023-02-23T07:40:21;22.60;56.50
34640;DHT22;22600;48.186;11.526;2023-02-23T07:42:46;22.60;56.20
34640;DHT22;22600;48.186;11.526;2023-02-23T07:45:12;22.60;56.70
34640;DHT22;22600;48.186;11.526;2023-02-23T07:47:37;22.60;56.90
34640;DHT22;22600;48.186;11.526;2023-02-23T07:50:04;22.60;57.00
34640;DHT22;22600;48.186;11.526;2023-02-23T07:52:35;22.50;56.90
34640;DHT22;22600;48.186;11.526;2023-02-23T07:55:01;22.60;57.00
34640;DHT22;22600;48.186;11.526;2023-02-23T07:57:26;22.60;56.90
34640;DHT22;22600;48.186;11.526;2023-02-23T07:59:52;22.60;57.10
34640;DHT22;22600;48.186;11.526;2023-02-23T08:02:17;22.50;57.00
34640;DHT22;22600;48.186;11.526;2023-02-23T08:04:43;22.60;57.00
34640;DHT22;22600;48.186;11.526;2023-02-23T08:07:09;22.60;57.00
34640;DHT22;22600;48.186;11.526;2023-02-23T08:09:35;22.60;57.00
34640;DHT22;22600;48.186;11.526;2023-02-23T08:12:02;22.60;57.10
34640;DHT22;22600;48.186;11.526;2023-02-23T08:14:27;22.60;57.10
34640;DHT22;22600;48.186;11.526;2023-02-23T08:16:53;22.60;57.20
34640;DHT22;22600;48.186;11.526;2023-02-23T08:19:19;22.60;57.10
34640;DHT22;22600;48.186;11.526;2023-02-23T08:21:48;22.60;57.30
34640;DHT22;22600;48.186;11.526;2023-02-23T08:24:14;22.60;57.40
34640;DHT22;22600;48.186;11.526;2023-02-23T08:26:40;22.60;57.60
34640;DHT22;22600;48.186;11.526;2023-02-23T08:29:06;22.60;57.50
34640;DHT22;22600;48.186;11.526;2023-02-23T08:31:32;22.50;57.50
34640;DHT22;22600;48.186;11.526;2023-02-23T08:33:58;22.60;57.50
34640;DHT22;22600;48.186;11.526;2023-02-23T08:36:23;22.60;57.50
34640;DHT22;22600;48.186;11.526;2023-02-23T08:38:49;22.60;57.40
34640;DHT22;22600;48.186;11.526;2023-02-23T08:41:15;22.50;57.40
34640;DHT22;22600;48.186;11.526;2023-02-23T08:43:41;22.60;57.40
34640;DHT22;22600;48.186;11.526;2023-02-23T08:46:07;22.60;57.50
34640;DHT22;22600;48.186;11.526;2023-02-23T08:48:33;22.60;57.10
34640;DHT22;22600;48.186;11.526;2023-02-23T08:50:59;22.50;57.50
34640;DHT22;22600;48.186;11.526;2023-02-23T08:53:26;22.60;57.80
34640;DHT22;22600;48.186;11.526;2023-02-23T08:56:01;22.50;57.50
34640;DHT22;22600;48.186;11.526;2023-02-23T08:58:28;22.60;57.80
34640;DHT22;22600;48.186;11.526;2023-02-23T09:00:55;22.60;58.10
34640;DHT22;22600;48.186;11.526;2023-02-23T09:03:21;22.60;58.40
34640;DHT22;22600;48.186;11.526;2023-02-23T09:05:48;22.60;58.50
34640;DHT22;22600;48.186;11.526;2023-02-23T09:08:14;22.60;58.60
34640;DHT22;22600;48.186;11.526;2023-02-23T09:10:39;22.60;58.00
34640;DHT22;22600;48.186;11.526;2023-02-23T09:13:09;22.60;58.50
34640;DHT22;22600;48.186;11.526;2023-02-23T09:15:34;22.60;58.20
34640;DHT22;22600;48.186;11.526;2023-02-23T09:18:00;22.60;58.00
34640;DHT22;22600;48.186;11.526;2023-02-23T09:20:26;22.70;58.10
34640;DHT22;22600;48.186;11.526;2023-02-23T09:22:52;22.60;58.20
34640;DHT22;22600;48.186;11.526;2023-02-23T09:25:19;22.70;57.80
34640;DHT22;22600;48.186;11.526;2023-02-23T09:27:50;22.70;57.80
34640;DHT22;22600;48.186;11.526;2023-02-23T09:30:17;22.70;58.30
34640;DHT22;22600;48.186;11.526;2023-02-23T09:32:46;22.70;58.10
34640;DHT22;22600;48.186;11.526;2023-02-23T09:35:12;27.80;60.50
34640;DHT22;22600;48.186;11.526;2023-02-23T09:37:43;22.80;58.00
34640;DHT22;22600;48.186;11.526;2023-02-23T09:40:24;22.80;58.00
34640;DHT22;22600;48.186;11.526;2023-02-23T09:48:24;22.80;57.40
34640;DHT22;22600;48.186;11.526;2023-02-23T09:50:52;22.80;57.50
34640;DHT22;22600;48.186;11.526;2023-02-23T09:56:01;22.90;57.70
34640;DHT22;22600;48.186;11.526;2023-02-23T09:58:30;22.90;57.80
34640;DHT22;22600;48.186;11.526;2023-02-23T10:03:30;22.80;57.70
34640;DHT22;22600;48.186;11.526;2023-02-23T10:06:08;22.80;57.70
34640;DHT22;22600;48.186;11.526;2023-02-23T10:08:43;22.90;57.70
34640;DHT22;22600;48.186;11.526;2023-02-23T10:11:28;22.90;57.70
34640;DHT22;22600;48.186;11.526;2023-02-23T10:19:31;22.80;57.70
34640;DHT22;22600;48.186;11.526;2023-02-23T10:22:03;22.80;57.80
34640;DHT22;22600;48.186;11.526;2023-02-23T10:24:36;22.90;57.90
34640;DHT22;22600;48.186;11.526;2023-02-23T10:27:16;22.90;57.40
34640;DHT22;22600;48.186;11.526;2023-02-23T10:29:55;22.80;57.80
34640;DHT22;22600;48.186;11.526;2023-02-23T10:32:46;22.80;57.80
34640;DHT22;22600;48.186;11.526;2023-02-23T10:35:17;22.80;57.80
34640;DHT22;22600;48.186;11.526;2023-02-23T10:37:45;22.90;57.90
34640;DHT22;22600;48.186;11.526;2023-02-23T10:40:22;22.90;57.90
34640;DHT22;22600;48.186;11.526;2023-02-23T10:42:49;22.90;57.90
34640;DHT22;22600;48.186;11.526;2023-02-23T10:45:19;22.90;57.50
34640;DHT22;22600;48.186;11.526;2023-02-23T10:47:56;22.90;58.00
34640;DHT22;22600;48.186;11.526;2023-02-23T10:50:22;22.90;57.90
34640;DHT22;22600;48.186;11.526;2023-02-23T10:52:57;22.90;58.00
34640;DHT22;22600;48.186;11.526;2023-02-23T10:55:27;22.90;57.60
34640;DHT22;22600;48.186;11.526;2023-02-23T10:58:09;22.90;58.10
34640;DHT22;22600;48.186;11.526;2023-02-23T11:03:36;22.90;58.00
34640;DHT22;22600;48.186;11.526;2023-02-23T11:06:03;22.90;58.00
34640;DHT22;22600;48.186;11.526;2023-02-23T11:08:36;22.90;58.10
34640;DHT22;22600;48.186;11.526;2023-02-23T11:13:42;22.90;58.20
34640;DHT22;22600;48.186;11.526;2023-02-23T11:16:30;22.90;58.20
34640;DHT22;22600;48.186;11.526;2023-02-23T11:19:03;22.90;58.20
34640;DHT22;22600;48.186;11.526;2023-02-23T11:24:18;23.00;57.80
34640;DHT22;22600;48.186;11.526;2023-02-23T11:26:47;22.90;58.20
34640;DHT22;22600;48.186;11.526;2023-02-23T11:31:50;22.90;58.20
34640;DHT22;22600;48.186;11.526;2023-02-23T11:34:31;23.00;58.20
34640;DHT22;22600;48.186;11.526;2023-02-23T11:36:59;23.00;58.20
34640;DHT22;22600;48.186;11.526;2023-02-23T11:39:25;23.00;58.30
34640;DHT22;22600;48.186;11.526;2023-02-23T11:42:11;23.00;58.20
34640;DHT22;22600;48.186;11.526;2023-02-23T11:44:37;23.00;58.20
34640;DHT22;22600;48.186;11.526;2023-02-23T11:47:03;23.00;58.20
34640;DHT22;22600;48.186;11.526;2023-02-23T11:49:31;22.80;58.10
34640;DHT22;22600;48.186;11.526;2023-02-23T11:52:01;23.00;58.30
34640;DHT22;22600;48.186;11.526;2023-02-23T11:54:30;23.00;58.50
34640;DHT22;22600;48.186;11.526;2023-02-23T11:56:57;23.00;58.60
34640;DHT22;22600;48.186;11.526;2023-02-23T11:59:32;23.00;58.40
34640;DHT22;22600;48.186;11.526;2023-02-23T12:04:44;23.00;57.40
34640;DHT22;22600;48.186;11.526;2023-02-23T12:07:35;23.00;57.30
34640;DHT22;22600;48.186;11.526;2023-02-23T12:21:03;22.90;56.30
34640;DHT22;22600;48.186;11.526;2023-02-23T12:23:32;22.90;56.40
34640;DHT22;22600;48.186;11.526;2023-02-23T12:26:09;22.90;55.80
34640;DHT22;22600;48.186;11.526;2023-02-23T12:28:49;22.90;55.90
34640;DHT22;22600;48.186;11.526;2023-02-23T12:31:48;22.90;56.00
34640;DHT22;22600;48.186;11.526;2023-02-23T12:34:55;22.90;56.10
34640;DHT22;22600;48.186;11.526;2023-02-23T12:39:56;22.90;56.30
34640;DHT22;22600;48.186;11.526;2023-02-23T12:45:05;26.00;58.20
34640;DHT22;22600;48.186;11.526;2023-02-23T12:47:43;22.90;56.60
34640;DHT22;22600;48.186;11.526;2023-02-23T12:50:17;22.90;56.70
34640;DHT22;22600;48.186;11.526;2023-02-23T12:52:53;22.90;56.80
34640;DHT22;22600;48.186;11.526;2023-02-23T12:58:28;22.90;56.90
34640;DHT22;22600;48.186;11.526;2023-02-23T13:03:32;22.90;57.00
34640;DHT22;22600;48.186;11.526;2023-02-23T13:14:28;22.80;57.10
34640;DHT22;22600;48.186;11.526;2023-02-23T13:17:10;22.90;57.30
34640;DHT22;22600;48.186;11.526;2023-02-23T13:19:55;22.90;57.20
34640;DHT22;22600;48.186;11.526;2023-02-23T13:25:49;22.90;57.40
34640;DHT22;22600;48.186;11.526;2023-02-23T13:28:32;22.80;57.80
34640;DHT22;22600;48.186;11.526;2023-02-23T13:30:59;22.90;58.00
34640;DHT22;22600;48.186;11.526;2023-02-23T13:33:27;23.00;58.00
34640;DHT22;22600;48.186;11.526;2023-02-23T13:35:56;22.90;57.90
34640;DHT22;22600;48.186;11.526;2023-02-23T13:38:25;22.90;58.00
34640;DHT22;22600;48.186;11.526;2023-02-23T13:41:02;23.00;58.00
34640;DHT22;22600;48.186;11.526;2023-02-23T13:43:45;22.90;58.00
34640;DHT22;22600;48.186;11.526;2023-02-23T13:49:20;23.00;58.10
34640;DHT22;22600;48.186;11.526;2023-02-23T13:51:55;23.00;58.10
34640;DHT22;22600;48.186;11.526;2023-02-23T13:54:24;22.90;58.20
34640;DHT22;22600;48.186;11.526;2023-02-23T13:56:54;23.00;58.20
34640;DHT22;22600;48.186;11.526;2023-02-23T13:59:22;23.00;58.20
34640;DHT22;22600;48.186;11.526;2023-02-23T14:01:51;23.00;58.30
34640;DHT22;22600;48.186;11.526;2023-02-23T14:04:35;23.00;58.30
34640;DHT22;22600;48.186;11.526;2023-02-23T14:07:05;23.00;58.30
34640;DHT22;22600;48.186;11.526;2023-02-23T14:09:49;23.00;58.30
34640;DHT22;22600;48.186;11.526;2023-02-23T14:12:37;23.00;57.80
34640;DHT22;22600;48.186;11.526;2023-02-23T14:32:29;23.10;58.50
34640;DHT22;22600;48.186;11.526;2023-02-23T14:34:57;23.00;58.60
34640;DHT22;22600;48.186;11.526;2023-02-23T14:37:33;23.10;58.60
34640;DHT22;22600;48.186;11.526;2023-02-23T14:40:20;23.10;58.60
34640;DHT22;22600;48.186;11.526;2023-02-23T14:42:51;23.10;58.60
34640;DHT22;22600;48.186;11.526;2023-02-23T14:45:21;23.00;58.60
34640;DHT22;22600;48.186;11.526;2023-02-23T14:47:52;23.10;58.70
34640;DHT22;22600;48.186;11.526;2023-02-23T14:50:25;23.10;58.70
34640;DHT22;22600;48.186;11.526;2023-02-23T14:52:53;23.00;58.10
34640;DHT22;22600;48.186;11.526;2023-02-23T14:55:24;23.10;58.60
34640;DHT22;22600;48.186;11.526;2023-02-23T14:57:49;23.10;58.40
34640;DHT22;22600;48.186;11.526;2023-02-23T15:00:22;23.10;57.30
34640;DHT22;22600;48.186;11.526;2023-02-23T15:03:06;23.00;56.90
34640;DHT22;22600;48.186;11.526;2023-02-23T15:05:57;23.00;56.90
34640;DHT22;22600;48.186;11.526;2023-02-23T15:08:26;23.00;56.40
34640;DHT22;22600;48.186;11.526;2023-02-23T15:11:17;23.00;54.10
34640;DHT22;22600;48.186;11.526;2023-02-23T15:13:49;23.00;54.60
34640;DHT22;22600;48.186;11.526;2023-02-23T15:16:23;23.00;54.40
34640;DHT22;22600;48.186;11.526;2023-02-23T15:19:29;23.00;54.40
34640;DHT22;22600;48.186;11.526;2023-02-23T15:21:58;23.00;54.40
34640;DHT22;22600;48.186;11.526;2023-02-23T15:24:39;22.90;53.60
34640;DHT22;22600;48.186;11.526;2023-02-23T15:27:11;22.90;54.00
34640;DHT22;22600;48.186;11.526;2023-02-23T15:29:39;22.90;54.50
34640;DHT22;22600;48.186;11.526;2023-02-23T15:32:17;22.90;54.00
34640;DHT22;22600;48.186;11.526;2023-02-23T15:34:43;22.90;54.00
34640;DHT22;22600;48.186;11.526;2023-02-23T15:40:02;22.90;54.30
34640;DHT22;22600;48.186;11.526;2023-02-23T15:42:44;22.90;54.50
34640;DHT22;22600;48.186;11.526;2023-02-23T15:45:26;22.90;54.50
34640;DHT22;22600;48.186;11.526;2023-02-23T15:47:59;22.90;54.40
34640;DHT22;22600;48.186;11.526;2023-02-23T15:50:29;22.90;54.40
34640;DHT22;22600;48.186;11.526;2023-02-23T15:53:02;22.90;54.50
34640;DHT22;22600;48.186;11.526;2023-02-23T15:55:34;22.90;54.50
34640;DHT22;22600;48.186;11.526;2023-02-23T15:58:15;22.90;54.60
34640;DHT22;22600;48.186;11.526;2023-02-23T16:00:44;22.90;54.50
34640;DHT22;22600;48.186;11.526;2023-02-23T16:03:35;22.90;54.50
34640;DHT22;22600;48.186;11.526;2023-02-23T16:06:03;22.90;54.10
34640;DHT22;22600;48.186;11.526;2023-02-23T16:08:29;22.90;54.60
34640;DHT22;22600;48.186;11.526;2023-02-23T16:11:03;22.90;54.60
34640;DHT22;22600;48.186;11.526;2023-02-23T16:13:31;22.80;54.10
34640;DHT22;22600;48.186;11.526;2023-02-23T16:15:57;22.90;54.20
34640;DHT22;22600;48.186;11.526;2023-02-23T16:18:37;22.80;54.60
34640;DHT22;22600;48.186;11.526;2023-02-23T16:21:04;22.90;54.70
34640;DHT22;22600;48.186;11.526;2023-02-23T16:23:39;22.90;54.70
34640;DHT22;22600;48.186;11.526;2023-02-23T16:26:23;22.90;54.70
34640;DHT22;22600;48.186;11.526;2023-02-23T16:28:57;22.90;54.80
34640;DHT22;22600;48.186;11.526;2023-02-23T16:31:43;22.90;54.80
34640;DHT22;22600;48.186;11.526;2023-02-23T16:36:58;21.10;54.00
34640;DHT22;22600;48.186;11.526;2023-02-23T16:39:27;22.80;54.80
34640;DHT22;22600;48.186;11.526;2023-02-23T16:41:57;22.90;54.90
34640;DHT22;22600;48.186;11.526;2023-02-23T16:44:25;22.90;54.90
34640;DHT22;22600;48.186;11.526;2023-02-23T16:49:29;22.90;55.10
34640;DHT22;22600;48.186;11.526;2023-02-23T16:51:56;22.90;55.20
34640;DHT22;22600;48.186;11.526;2023-02-23T16:54:22;22.80;55.00
34640;DHT22;22600;48.186;11.526;2023-02-23T16:56:48;22.80;54.50
34640;DHT22;22600;48.186;11.526;2023-02-23T16:59:17;22.80;54.10
34640;DHT22;22600;48.186;11.526;2023-02-23T17:01:43;22.80;53.40
34640;DHT22;22600;48.186;11.526;2023-02-23T17:04:15;22.70;52.80
34640;DHT22;22600;48.186;11.526;2023-02-23T17:06:42;22.80;52.20
34640;DHT22;22600;48.186;11.526;2023-02-23T17:09:09;22.70;51.70
34640;DHT22;22600;48.186;11.526;2023-02-23T17:11:35;22.70;51.10
34640;DHT22;22600;48.186;11.526;2023-02-23T17:14:01;22.70;51.00
34640;DHT22;22600;48.186;11.526;2023-02-23T17:16:26;22.70;49.90
34640;DHT22;22600;48.186;11.526;2023-02-23T17:18:52;22.70;48.20
34640;DHT22;22600;48.186;11.526;2023-02-23T17:21:18;22.60;47.00
34640;DHT22;22600;48.186;11.526;2023-02-23T17:23:50;22.60;46.30
34640;DHT22;22600;48.186;11.526;2023-02-23T17:26:19;22.50;46.40
34640;DHT22;22600;48.186;11.526;2023-02-23T17:28:46;22.40;46.40
34640;DHT22;22600;48.186;11.526;2023-02-23T17:31:12;22.40;46.90
34640;DHT22;22600;48.186;11.526;2023-02-23T17:33:40;22.40;46.40
34640;DHT22;22600;48.186;11.526;2023-02-23T17:36:09;22.40;47.10
34640;DHT22;22600;48.186;11.526;2023-02-23T17:38:35;22.40;47.70
34640;DHT22;22600;48.186;11.526;2023-02-23T17:41:01;22.40;47.90
34640;DHT22;22600;48.186;11.526;2023-02-23T17:43:27;22.40;48.40
34640;DHT22;22600;48.186;11.526;2023-02-23T17:45:53;22.40;48.40
34640;DHT22;22600;48.186;11.526;2023-02-23T17:48:22;22.40;48.20